Schagen, Netherlands
Current Conditions -  °F | °C
As of 9:25 PM on Friday 21 Nov 2014 (Local Time) from EHKD Reporting Station
Overcast Overcast  
Wind Chill: 35°   Ceiling: 11000
Heat Index: 43°   Visibility: 6mi
Dew Point: 41°   Wind: 15mph
Humidity: 93%   Direction: 110°ESE
Pressure: 30.12"   Gusts: NA
Location:  52.79°N, 4.8°E
Report Text: EHKD 212025Z AUTO 11013KT 9999 OVC110 06/05 Q1020 BLU
Loading
Personal Weather Stations






























Interactive Weather Map New forecast layout! Learn more

10-Day Weather Forecast

Advertisements
Track Severe Weather on mobile